sensor_id;sensor_type;location;lat;lon;timestamp;temperature;humidity
23813;DHT22;12087;45.190;5.688;2022-11-14T00:19:09;9.70;99.90
23813;DHT22;12087;45.190;5.688;2022-11-14T00:24:32;9.70;99.90
23813;DHT22;12087;45.190;5.688;2022-11-14T00:52:48;9.70;99.90
23813;DHT22;12087;45.190;5.688;2022-11-14T00:58:10;9.70;99.90
23813;DHT22;12087;45.190;5.688;2022-11-14T01:03:32;9.70;99.90
23813;DHT22;12087;45.190;5.688;2022-11-14T01:08:56;9.80;99.90
23813;DHT22;12087;45.190;5.688;2022-11-14T01:14:18;9.70;99.90
23813;DHT22;12087;45.190;5.688;2022-11-14T01:19:40;9.70;99.90
23813;DHT22;12087;45.190;5.688;2022-11-14T02:58:16;9.80;99.90
23813;DHT22;12087;45.190;5.688;2022-11-14T03:03:38;9.80;99.90
23813;DHT22;12087;45.190;5.688;2022-11-14T03:09:00;9.80;99.90
23813;DHT22;12087;45.190;5.688;2022-11-14T03:14:24;9.80;99.90
23813;DHT22;12087;45.190;5.688;2022-11-14T03:19:46;9.80;99.90
23813;DHT22;12087;45.190;5.688;2022-11-14T03:25:08;9.80;99.90
23813;DHT22;12087;45.190;5.688;2022-11-14T03:30:32;9.80;99.90
23813;DHT22;12087;45.190;5.688;2022-11-14T03:35:54;9.90;99.90
23813;DHT22;12087;45.190;5.688;2022-11-14T03:41:16;9.90;99.90
23813;DHT22;12087;45.190;5.688;2022-11-14T03:46:40;9.80;99.90
23813;DHT22;12087;45.190;5.688;2022-11-14T03:52:02;9.90;99.90
23813;DHT22;12087;45.190;5.688;2022-11-14T03:57:25;9.90;99.90
23813;DHT22;12087;45.190;5.688;2022-11-14T04:02:48;9.90;99.90
23813;DHT22;12087;45.190;5.688;2022-11-14T04:08:11;9.90;99.90
23813;DHT22;12087;45.190;5.688;2022-11-14T04:13:33;9.90;99.90
23813;DHT22;12087;45.190;5.688;2022-11-14T04:18:56;9.90;99.90
23813;DHT22;12087;45.190;5.688;2022-11-14T04:24:18;9.90;99.90
23813;DHT22;12087;45.190;5.688;2022-11-14T04:29:41;9.90;99.90
23813;DHT22;12087;45.190;5.688;2022-11-14T04:35:05;9.90;99.90
23813;DHT22;12087;45.190;5.688;2022-11-14T04:40:27;9.90;99.90
23813;DHT22;12087;45.190;5.688;2022-11-14T04:45:49;9.90;99.90
23813;DHT22;12087;45.190;5.688;2022-11-14T04:51:13;9.90;99.90
23813;DHT22;12087;45.190;5.688;2022-11-14T04:56:35;9.90;99.90
23813;DHT22;12087;45.190;5.688;2022-11-14T05:01:58;9.90;99.90
23813;DHT22;12087;45.190;5.688;2022-11-14T05:07:21;9.90;99.90
23813;DHT22;12087;45.190;5.688;2022-11-14T05:12:43;10.00;99.90
23813;DHT22;12087;45.190;5.688;2022-11-14T05:18:06;10.00;99.90
23813;DHT22;12087;45.190;5.688;2022-11-14T05:23:29;10.00;99.90
23813;DHT22;12087;45.190;5.688;2022-11-14T05:28:51;10.00;99.90
23813;DHT22;12087;45.190;5.688;2022-11-14T05:34:14;10.00;99.90
23813;DHT22;12087;45.190;5.688;2022-11-14T05:39:37;10.00;99.90
23813;DHT22;12087;45.190;5.688;2022-11-14T05:44:59;10.10;99.90
23813;DHT22;12087;45.190;5.688;2022-11-14T05:50:22;10.10;99.90
23813;DHT22;12087;45.190;5.688;2022-11-14T05:55:45;10.10;99.90
23813;DHT22;12087;45.190;5.688;2022-11-14T06:01:09;10.00;99.90
23813;DHT22;12087;45.190;5.688;2022-11-14T06:06:31;10.10;99.90
23813;DHT22;12087;45.190;5.688;2022-11-14T06:11:55;10.00;99.90
23813;DHT22;12087;45.190;5.688;2022-11-14T06:17:17;10.10;99.90
23813;DHT22;12087;45.190;5.688;2022-11-14T06:22:39;10.00;99.90
23813;DHT22;12087;45.190;5.688;2022-11-14T06:28:03;10.00;99.90
23813;DHT22;12087;45.190;5.688;2022-11-14T06:33:26;10.10;99.90
23813;DHT22;12087;45.190;5.688;2022-11-14T06:38:48;10.00;99.90
23813;DHT22;12087;45.190;5.688;2022-11-14T06:44:12;10.00;99.90
23813;DHT22;12087;45.190;5.688;2022-11-14T06:49:35;10.00;99.90
23813;DHT22;12087;45.190;5.688;2022-11-14T06:54:57;10.10;99.90
23813;DHT22;12087;45.190;5.688;2022-11-14T07:00:21;10.10;99.90
23813;DHT22;12087;45.190;5.688;2022-11-14T07:05:43;10.10;99.90
23813;DHT22;12087;45.190;5.688;2022-11-14T07:11:07;10.10;99.90
23813;DHT22;12087;45.190;5.688;2022-11-14T07:16:33;10.10;99.90
23813;DHT22;12087;45.190;5.688;2022-11-14T07:21:55;10.20;99.90
23813;DHT22;12087;45.190;5.688;2022-11-14T07:27:18;10.20;99.90
23813;DHT22;12087;45.190;5.688;2022-11-14T07:32:41;10.20;99.90
23813;DHT22;12087;45.190;5.688;2022-11-14T07:38:04;10.30;99.90
23813;DHT22;12087;45.190;5.688;2022-11-14T07:43:26;10.30;99.90
23813;DHT22;12087;45.190;5.688;2022-11-14T07:48:50;10.30;99.90
23813;DHT22;12087;45.190;5.688;2022-11-14T07:54:13;10.40;99.90
23813;DHT22;12087;45.190;5.688;2022-11-14T07:59:35;10.40;99.90
23813;DHT22;12087;45.190;5.688;2022-11-14T08:04:59;10.40;99.90
23813;DHT22;12087;45.190;5.688;2022-11-14T08:10:22;10.50;99.90
23813;DHT22;12087;45.190;5.688;2022-11-14T08:15:44;10.50;99.90
23813;DHT22;12087;45.190;5.688;2022-11-14T08:21:08;10.60;99.90
23813;DHT22;12087;45.190;5.688;2022-11-14T08:26:30;10.60;99.90
23813;DHT22;12087;45.190;5.688;2022-11-14T08:31:52;10.70;99.90
23813;DHT22;12087;45.190;5.688;2022-11-14T08:37:16;10.70;99.90
23813;DHT22;12087;45.190;5.688;2022-11-14T08:42:39;10.80;99.90
23813;DHT22;12087;45.190;5.688;2022-11-14T08:48:01;10.80;99.90
23813;DHT22;12087;45.190;5.688;2022-11-14T08:53:25;10.90;99.90
23813;DHT22;12087;45.190;5.688;2022-11-14T08:58:47;11.00;99.90
23813;DHT22;12087;45.190;5.688;2022-11-14T09:04:09;11.10;99.90
23813;DHT22;12087;45.190;5.688;2022-11-14T09:09:33;11.10;99.90
23813;DHT22;12087;45.190;5.688;2022-11-14T09:14:55;11.20;99.90
23813;DHT22;12087;45.190;5.688;2022-11-14T09:20:18;11.30;99.90
23813;DHT22;12087;45.190;5.688;2022-11-14T09:25:42;11.40;99.90
23813;DHT22;12087;45.190;5.688;2022-11-14T09:31:06;11.40;99.90
23813;DHT22;12087;45.190;5.688;2022-11-14T09:36:28;11.50;99.90
23813;DHT22;12087;45.190;5.688;2022-11-14T09:42:00;11.60;99.90
23813;DHT22;12087;45.190;5.688;2022-11-14T09:47:28;11.70;99.90
23813;DHT22;12087;45.190;5.688;2022-11-14T09:52:54;11.90;99.90
23813;DHT22;12087;45.190;5.688;2022-11-14T09:58:20;11.90;99.90
23813;DHT22;12087;45.190;5.688;2022-11-14T10:03:48;12.00;99.90
23813;DHT22;12087;45.190;5.688;2022-11-14T10:09:29;12.10;99.90
23813;DHT22;12087;45.190;5.688;2022-11-14T10:15:10;12.20;99.90
23813;DHT22;12087;45.190;5.688;2022-11-14T10:20:38;12.30;99.90
23813;DHT22;12087;45.190;5.688;2022-11-14T10:26:10;12.40;99.90
23813;DHT22;12087;45.190;5.688;2022-11-14T10:31:42;12.50;99.90
23813;DHT22;12087;45.190;5.688;2022-11-14T10:37:14;12.50;99.90
23813;DHT22;12087;45.190;5.688;2022-11-14T10:42:40;12.60;99.90
23813;DHT22;12087;45.190;5.688;2022-11-14T10:48:11;12.70;99.90
23813;DHT22;12087;45.190;5.688;2022-11-14T10:53:43;12.80;99.90
23813;DHT22;12087;45.190;5.688;2022-11-14T10:59:08;12.80;99.90
23813;DHT22;12087;45.190;5.688;2022-11-14T11:04:32;12.90;99.90
23813;DHT22;12087;45.190;5.688;2022-11-14T11:09:58;13.00;99.90
23813;DHT22;12087;45.190;5.688;2022-11-14T11:15:40;13.10;99.90
23813;DHT22;12087;45.190;5.688;2022-11-14T11:21:07;13.10;99.90
23813;DHT22;12087;45.190;5.688;2022-11-14T11:26:30;13.20;99.90
23813;DHT22;12087;45.190;5.688;2022-11-14T11:31:54;13.20;99.90
23813;DHT22;12087;45.190;5.688;2022-11-14T11:37:22;13.30;99.90
23813;DHT22;12087;45.190;5.688;2022-11-14T11:42:50;13.40;99.90
23813;DHT22;12087;45.190;5.688;2022-11-14T11:48:16;13.40;99.90
23813;DHT22;12087;45.190;5.688;2022-11-14T11:53:45;13.50;99.90
23813;DHT22;12087;45.190;5.688;2022-11-14T11:59:27;13.60;99.90
23813;DHT22;12087;45.190;5.688;2022-11-14T12:04:55;13.60;99.90
23813;DHT22;12087;45.190;5.688;2022-11-14T12:10:21;13.70;99.90
23813;DHT22;12087;45.190;5.688;2022-11-14T12:15:52;13.70;99.90
23813;DHT22;12087;45.190;5.688;2022-11-14T12:21:26;13.80;99.90
23813;DHT22;12087;45.190;5.688;2022-11-14T12:27:09;14.10;99.90
23813;DHT22;12087;45.190;5.688;2022-11-14T12:32:36;14.30;99.90
23813;DHT22;12087;45.190;5.688;2022-11-14T12:38:02;14.60;99.90
23813;DHT22;12087;45.190;5.688;2022-11-14T12:43:32;14.90;99.90
23813;DHT22;12087;45.190;5.688;2022-11-14T12:48:55;15.00;99.90
23813;DHT22;12087;45.190;5.688;2022-11-14T12:54:43;15.20;99.90
23813;DHT22;12087;45.190;5.688;2022-11-14T13:00:08;15.40;99.90
23813;DHT22;12087;45.190;5.688;2022-11-14T13:05:52;15.50;99.90
23813;DHT22;12087;45.190;5.688;2022-11-14T13:11:40;15.60;99.90
23813;DHT22;12087;45.190;5.688;2022-11-14T13:17:26;15.80;99.90
23813;DHT22;12087;45.190;5.688;2022-11-14T13:35:41;15.80;99.90
23813;DHT22;12087;45.190;5.688;2022-11-14T13:52:47;16.20;99.90
23813;DHT22;12087;45.190;5.688;2022-11-14T13:58:21;16.30;97.80
23813;DHT22;12087;45.190;5.688;2022-11-14T14:04:03;16.30;99.00
23813;DHT22;12087;45.190;5.688;2022-11-14T14:09:38;16.40;99.20
23813;DHT22;12087;45.190;5.688;2022-11-14T14:15:08;16.40;97.70
23813;DHT22;12087;45.190;5.688;2022-11-14T14:20:39;16.60;97.20
23813;DHT22;12087;45.190;5.688;2022-11-14T14:26:16;16.60;97.10
23813;DHT22;12087;45.190;5.688;2022-11-14T14:31:41;16.60;98.70
23813;DHT22;12087;45.190;5.688;2022-11-14T14:37:15;16.60;98.60
23813;DHT22;12087;45.190;5.688;2022-11-14T14:42:40;16.60;99.00
23813;DHT22;12087;45.190;5.688;2022-11-14T14:48:13;16.70;94.40
23813;DHT22;12087;45.190;5.688;2022-11-14T14:53:35;16.70;93.60
23813;DHT22;12087;45.190;5.688;2022-11-14T14:59:14;16.80;96.90
23813;DHT22;12087;45.190;5.688;2022-11-14T15:04:38;16.80;97.20
23813;DHT22;12087;45.190;5.688;2022-11-14T15:10:02;16.80;92.70
23813;DHT22;12087;45.190;5.688;2022-11-14T15:15:26;16.70;95.50
23813;DHT22;12087;45.190;5.688;2022-11-14T15:21:09;16.60;96.20
23813;DHT22;12087;45.190;5.688;2022-11-14T15:26:34;16.50;95.90
23813;DHT22;12087;45.190;5.688;2022-11-14T15:32:00;16.50;92.30
23813;DHT22;12087;45.190;5.688;2022-11-14T15:37:22;16.60;93.20
23813;DHT22;12087;45.190;5.688;2022-11-14T15:42:45;16.60;92.30
23813;DHT22;12087;45.190;5.688;2022-11-14T15:48:13;16.60;92.60
23813;DHT22;12087;45.190;5.688;2022-11-14T15:53:36;16.50;92.20
23813;DHT22;12087;45.190;5.688;2022-11-14T15:58:58;16.50;93.00
23813;DHT22;12087;45.190;5.688;2022-11-14T16:04:25;16.50;94.00
23813;DHT22;12087;45.190;5.688;2022-11-14T16:09:49;16.60;91.80
23813;DHT22;12087;45.190;5.688;2022-11-14T16:15:12;16.50;92.50
23813;DHT22;12087;45.190;5.688;2022-11-14T16:20:35;16.50;91.30
23813;DHT22;12087;45.190;5.688;2022-11-14T16:25:59;16.40;92.30
23813;DHT22;12087;45.190;5.688;2022-11-14T16:31:21;16.30;92.10
23813;DHT22;12087;45.190;5.688;2022-11-14T16:36:45;16.20;94.00
23813;DHT22;12087;45.190;5.688;2022-11-14T16:42:09;16.20;93.50
23813;DHT22;12087;45.190;5.688;2022-11-14T16:47:31;16.10;92.10
23813;DHT22;12087;45.190;5.688;2022-11-14T16:52:55;16.10;93.40
23813;DHT22;12087;45.190;5.688;2022-11-14T16:58:17;16.10;94.10
23813;DHT22;12087;45.190;5.688;2022-11-14T17:03:40;16.00;95.90
23813;DHT22;12087;45.190;5.688;2022-11-14T17:09:03;16.00;96.90
23813;DHT22;12087;45.190;5.688;2022-11-14T17:14:26;16.00;96.10
23813;DHT22;12087;45.190;5.688;2022-11-14T17:19:48;15.90;96.60
23813;DHT22;12087;45.190;5.688;2022-11-14T17:25:12;16.00;96.80
23813;DHT22;12087;45.190;5.688;2022-11-14T17:30:34;16.10;97.80
23813;DHT22;12087;45.190;5.688;2022-11-14T17:36:02;16.20;98.40
23813;DHT22;12087;45.190;5.688;2022-11-14T17:41:26;16.20;99.10
23813;DHT22;12087;45.190;5.688;2022-11-14T17:46:48;16.20;99.70
23813;DHT22;12087;45.190;5.688;2022-11-14T17:52:11;16.10;99.90
23813;DHT22;12087;45.190;5.688;2022-11-14T17:57:34;16.20;99.90
23813;DHT22;12087;45.190;5.688;2022-11-14T18:02:56;16.10;99.90
23813;DHT22;12087;45.190;5.688;2022-11-14T18:08:19;16.00;99.90
23813;DHT22;12087;45.190;5.688;2022-11-14T18:13:44;15.80;99.90
23813;DHT22;12087;45.190;5.688;2022-11-14T18:19:06;15.50;99.90
23813;DHT22;12087;45.190;5.688;2022-11-14T18:24:28;15.20;99.90
23813;DHT22;12087;45.190;5.688;2022-11-14T18:29:52;15.00;99.90
23813;DHT22;12087;45.190;5.688;2022-11-14T18:35:14;14.80;99.90
23813;DHT22;12087;45.190;5.688;2022-11-14T18:40:36;14.70;99.90
23813;DHT22;12087;45.190;5.688;2022-11-14T18:46:05;14.60;99.90
23813;DHT22;12087;45.190;5.688;2022-11-14T18:51:30;14.50;99.90
23813;DHT22;12087;45.190;5.688;2022-11-14T18:57:02;14.40;99.90
23813;DHT22;12087;45.190;5.688;2022-11-14T19:02:25;14.30;99.90
23813;DHT22;12087;45.190;5.688;2022-11-14T19:07:48;14.20;99.90
23813;DHT22;12087;45.190;5.688;2022-11-14T19:13:12;14.10;99.90
23813;DHT22;12087;45.190;5.688;2022-11-14T19:18:36;13.90;99.90
23813;DHT22;12087;45.190;5.688;2022-11-14T19:23:59;13.70;99.90
23813;DHT22;12087;45.190;5.688;2022-11-14T19:29:21;13.60;99.90
23813;DHT22;12087;45.190;5.688;2022-11-14T19:34:44;13.50;99.90
23813;DHT22;12087;45.190;5.688;2022-11-14T19:40:08;13.40;99.90
23813;DHT22;12087;45.190;5.688;2022-11-14T19:45:33;13.40;99.90
23813;DHT22;12087;45.190;5.688;2022-11-14T19:51:02;13.40;99.90
23813;DHT22;12087;45.190;5.688;2022-11-14T19:56:25;13.50;99.90
23813;DHT22;12087;45.190;5.688;2022-11-14T20:01:48;13.50;99.90
23813;DHT22;12087;45.190;5.688;2022-11-14T20:07:16;13.50;99.90
23813;DHT22;12087;45.190;5.688;2022-11-14T20:12:38;13.40;99.90
23813;DHT22;12087;45.190;5.688;2022-11-14T20:18:00;13.40;99.90
23813;DHT22;12087;45.190;5.688;2022-11-14T20:23:24;13.50;99.90
23813;DHT22;12087;45.190;5.688;2022-11-14T20:28:47;13.40;99.90
23813;DHT22;12087;45.190;5.688;2022-11-14T20:34:11;13.40;99.90
23813;DHT22;12087;45.190;5.688;2022-11-14T20:39:35;13.30;99.90
23813;DHT22;12087;45.190;5.688;2022-11-14T20:44:57;13.30;99.90
23813;DHT22;12087;45.190;5.688;2022-11-14T20:50:20;13.30;99.90
23813;DHT22;12087;45.190;5.688;2022-11-14T20:55:50;13.30;99.90
23813;DHT22;12087;45.190;5.688;2022-11-14T21:01:13;13.30;99.90
23813;DHT22;12087;45.190;5.688;2022-11-14T21:06:36;13.30;99.90
23813;DHT22;12087;45.190;5.688;2022-11-14T21:12:00;13.30;99.90
23813;DHT22;12087;45.190;5.688;2022-11-14T21:17:24;13.30;99.90
23813;DHT22;12087;45.190;5.688;2022-11-14T21:22:46;13.30;99.90
23813;DHT22;12087;45.190;5.688;2022-11-14T21:28:10;13.30;99.90
23813;DHT22;12087;45.190;5.688;2022-11-14T21:33:33;13.30;99.90
23813;DHT22;12087;45.190;5.688;2022-11-14T21:38:55;13.30;99.90
23813;DHT22;12087;45.190;5.688;2022-11-14T21:44:19;13.20;99.90
23813;DHT22;12087;45.190;5.688;2022-11-14T21:49:42;13.30;99.90
23813;DHT22;12087;45.190;5.688;2022-11-14T21:55:05;13.20;99.90
23813;DHT22;12087;45.190;5.688;2022-11-14T22:00:29;13.20;99.90
23813;DHT22;12087;45.190;5.688;2022-11-14T22:05:54;13.20;99.90
23813;DHT22;12087;45.190;5.688;2022-11-14T22:11:17;13.10;99.90
23813;DHT22;12087;45.190;5.688;2022-11-14T22:16:40;13.20;99.90
23813;DHT22;12087;45.190;5.688;2022-11-14T22:22:03;13.20;99.90
23813;DHT22;12087;45.190;5.688;2022-11-14T22:27:25;13.20;99.90
23813;DHT22;12087;45.190;5.688;2022-11-14T22:32:49;13.20;99.90
23813;DHT22;12087;45.190;5.688;2022-11-14T22:38:11;13.10;99.90
23813;DHT22;12087;45.190;5.688;2022-11-14T22:43:33;13.00;99.90
23813;DHT22;12087;45.190;5.688;2022-11-14T22:48:58;12.90;99.90
23813;DHT22;12087;45.190;5.688;2022-11-14T22:54:23;12.80;99.90
23813;DHT22;12087;45.190;5.688;2022-11-14T22:59:47;12.80;99.90
23813;DHT22;12087;45.190;5.688;2022-11-14T23:05:11;12.80;99.90
23813;DHT22;12087;45.190;5.688;2022-11-14T23:10:35;12.80;99.90
23813;DHT22;12087;45.190;5.688;2022-11-14T23:15:58;12.70;99.90
23813;DHT22;12087;45.190;5.688;2022-11-14T23:21:23;12.60;99.90
23813;DHT22;12087;45.190;5.688;2022-11-14T23:26:47;12.60;99.90
23813;DHT22;12087;45.190;5.688;2022-11-14T23:32:10;12.60;99.90
23813;DHT22;12087;45.190;5.688;2022-11-14T23:37:34;12.50;99.90
23813;DHT22;12087;45.190;5.688;2022-11-14T23:42:57;12.40;99.90
23813;DHT22;12087;45.190;5.688;2022-11-14T23:48:21;12.30;99.90
23813;DHT22;12087;45.190;5.688;2022-11-14T23:53:45;12.30;99.90
23813;DHT22;12087;45.190;5.688;2022-11-14T23:59:08;12.20;99.90
